sensor_id;sensor_type;location;lat;lon;timestamp;P1;durP1;ratioP1;P2;durP2;ratioP2
19861;SDS011;10093;48.148;8.542;2023-01-30T00:00:10;24.23;;;11.77;;
19861;SDS011;10093;48.148;8.542;2023-01-30T00:02:36;22.10;;;11.00;;
19861;SDS011;10093;48.148;8.542;2023-01-30T00:05:02;21.50;;;10.18;;
19861;SDS011;10093;48.148;8.542;2023-01-30T00:07:27;25.25;;;11.93;;
19861;SDS011;10093;48.148;8.542;2023-01-30T00:09:53;22.60;;;11.10;;
19861;SDS011;10093;48.148;8.542;2023-01-30T00:12:19;26.42;;;12.68;;
19861;SDS011;10093;48.148;8.542;2023-01-30T00:14:44;27.25;;;12.85;;
19861;SDS011;10093;48.148;8.542;2023-01-30T00:17:10;24.88;;;12.02;;
19861;SDS011;10093;48.148;8.542;2023-01-30T00:19:35;24.85;;;11.60;;
19861;SDS011;10093;48.148;8.542;2023-01-30T00:22:01;23.90;;;12.00;;
19861;SDS011;10093;48.148;8.542;2023-01-30T00:24:26;25.55;;;12.15;;
19861;SDS011;10093;48.148;8.542;2023-01-30T00:26:52;21.67;;;10.70;;
19861;SDS011;10093;48.148;8.542;2023-01-30T00:29:17;29.33;;;13.23;;
19861;SDS011;10093;48.148;8.542;2023-01-30T00:31:43;27.50;;;13.00;;
19861;SDS011;10093;48.148;8.542;2023-01-30T00:34:08;24.75;;;12.30;;
19861;SDS011;10093;48.148;8.542;2023-01-30T00:36:34;30.13;;;14.02;;
19861;SDS011;10093;48.148;8.542;2023-01-30T00:39:00;27.35;;;13.00;;
19861;SDS011;10093;48.148;8.542;2023-01-30T00:41:25;29.17;;;13.18;;
19861;SDS011;10093;48.148;8.542;2023-01-30T00:44:11;27.95;;;13.05;;
19861;SDS011;10093;48.148;8.542;2023-01-30T00:46:55;28.00;;;12.50;;
19861;SDS011;10093;48.148;8.542;2023-01-30T00:49:29;31.33;;;15.60;;
19861;SDS011;10093;48.148;8.542;2023-01-30T00:51:55;29.63;;;14.27;;
19861;SDS011;10093;48.148;8.542;2023-01-30T00:54:20;26.42;;;12.45;;
19861;SDS011;10093;48.148;8.542;2023-01-30T00:56:46;29.58;;;14.07;;
19861;SDS011;10093;48.148;8.542;2023-01-30T00:59:12;30.90;;;14.38;;
19861;SDS011;10093;48.148;8.542;2023-01-30T01:01:37;25.75;;;11.25;;
19861;SDS011;10093;48.148;8.542;2023-01-30T01:04:03;25.70;;;13.25;;
19861;SDS011;10093;48.148;8.542;2023-01-30T01:06:30;30.50;;;14.57;;
19861;SDS011;10093;48.148;8.542;2023-01-30T01:08:56;34.40;;;15.35;;
19861;SDS011;10093;48.148;8.542;2023-01-30T01:11:21;34.50;;;15.90;;
19861;SDS011;10093;48.148;8.542;2023-01-30T01:13:54;26.85;;;12.77;;
19861;SDS011;10093;48.148;8.542;2023-01-30T01:16:21;26.83;;;12.88;;
19861;SDS011;10093;48.148;8.542;2023-01-30T01:18:48;37.65;;;15.70;;
19861;SDS011;10093;48.148;8.542;2023-01-30T01:21:14;32.38;;;14.82;;
19861;SDS011;10093;48.148;8.542;2023-01-30T01:23:40;30.55;;;13.43;;
19861;SDS011;10093;48.148;8.542;2023-01-30T01:26:05;27.75;;;13.23;;
19861;SDS011;10093;48.148;8.542;2023-01-30T01:28:31;31.33;;;14.07;;
19861;SDS011;10093;48.148;8.542;2023-01-30T01:30:57;27.92;;;12.80;;
19861;SDS011;10093;48.148;8.542;2023-01-30T01:33:25;24.13;;;11.77;;
19861;SDS011;10093;48.148;8.542;2023-01-30T01:35:55;27.52;;;13.15;;
19861;SDS011;10093;48.148;8.542;2023-01-30T01:38:21;30.05;;;13.80;;
19861;SDS011;10093;48.148;8.542;2023-01-30T01:40:47;26.85;;;12.25;;
19861;SDS011;10093;48.148;8.542;2023-01-30T01:43:31;23.50;;;11.23;;
19861;SDS011;10093;48.148;8.542;2023-01-30T01:46:09;24.80;;;12.18;;
19861;SDS011;10093;48.148;8.542;2023-01-30T01:48:46;26.25;;;11.23;;
19861;SDS011;10093;48.148;8.542;2023-01-30T01:51:15;24.90;;;11.18;;
19861;SDS011;10093;48.148;8.542;2023-01-30T01:53:55;23.45;;;10.60;;
19861;SDS011;10093;48.148;8.542;2023-01-30T01:56:43;28.50;;;12.07;;
19861;SDS011;10093;48.148;8.542;2023-01-30T01:59:31;27.67;;;13.35;;
19861;SDS011;10093;48.148;8.542;2023-01-30T02:02:02;24.58;;;11.15;;
19861;SDS011;10093;48.148;8.542;2023-01-30T02:04:34;25.75;;;11.40;;
19861;SDS011;10093;48.148;8.542;2023-01-30T02:07:20;23.40;;;11.32;;
19861;SDS011;10093;48.148;8.542;2023-01-30T02:09:46;24.10;;;10.63;;
19861;SDS011;10093;48.148;8.542;2023-01-30T02:12:14;28.52;;;12.63;;
19861;SDS011;10093;48.148;8.542;2023-01-30T02:14:39;24.42;;;11.73;;
19861;SDS011;10093;48.148;8.542;2023-01-30T02:17:06;25.25;;;11.48;;
19861;SDS011;10093;48.148;8.542;2023-01-30T02:19:41;22.52;;;10.95;;
19861;SDS011;10093;48.148;8.542;2023-01-30T02:25:18;25.15;;;11.20;;
19861;SDS011;10093;48.148;8.542;2023-01-30T02:31:02;22.65;;;10.05;;
19861;SDS011;10093;48.148;8.542;2023-01-30T02:36:29;38.67;;;13.32;;
19861;SDS011;10093;48.148;8.542;2023-01-30T02:39:19;26.33;;;11.77;;
19861;SDS011;10093;48.148;8.542;2023-01-30T02:45:00;25.77;;;11.32;;
19861;SDS011;10093;48.148;8.542;2023-01-30T02:47:41;24.33;;;11.50;;
19861;SDS011;10093;48.148;8.542;2023-01-30T02:50:22;24.67;;;11.82;;
19861;SDS011;10093;48.148;8.542;2023-01-30T02:52:54;23.95;;;10.35;;
19861;SDS011;10093;48.148;8.542;2023-01-30T02:55:22;24.80;;;11.23;;
19861;SDS011;10093;48.148;8.542;2023-01-30T02:57:50;25.10;;;11.27;;
19861;SDS011;10093;48.148;8.542;2023-01-30T03:00:18;22.73;;;10.73;;
19861;SDS011;10093;48.148;8.542;2023-01-30T03:11:23;23.25;;;10.32;;
19861;SDS011;10093;48.148;8.542;2023-01-30T03:16:37;28.02;;;12.13;;
19861;SDS011;10093;48.148;8.542;2023-01-30T03:19:04;24.77;;;11.57;;
19861;SDS011;10093;48.148;8.542;2023-01-30T03:21:34;29.55;;;12.75;;
19861;SDS011;10093;48.148;8.542;2023-01-30T03:26:34;30.83;;;12.88;;
19861;SDS011;10093;48.148;8.542;2023-01-30T03:29:05;57.58;;;22.77;;
19861;SDS011;10093;48.148;8.542;2023-01-30T03:31:31;30.60;;;12.75;;
19861;SDS011;10093;48.148;8.542;2023-01-30T03:33:57;30.73;;;12.40;;
19861;SDS011;10093;48.148;8.542;2023-01-30T03:36:22;23.80;;;10.85;;
19861;SDS011;10093;48.148;8.542;2023-01-30T03:38:49;25.15;;;10.65;;
19861;SDS011;10093;48.148;8.542;2023-01-30T03:41:15;20.23;;;9.82;;
19861;SDS011;10093;48.148;8.542;2023-01-30T03:43:41;19.13;;;9.35;;
19861;SDS011;10093;48.148;8.542;2023-01-30T03:46:07;19.08;;;9.27;;
19861;SDS011;10093;48.148;8.542;2023-01-30T03:48:33;21.70;;;10.85;;
19861;SDS011;10093;48.148;8.542;2023-01-30T03:50:58;24.83;;;12.93;;
19861;SDS011;10093;48.148;8.542;2023-01-30T03:53:24;22.27;;;9.98;;
19861;SDS011;10093;48.148;8.542;2023-01-30T03:55:49;22.08;;;10.20;;
19861;SDS011;10093;48.148;8.542;2023-01-30T03:58:15;21.90;;;9.65;;
19861;SDS011;10093;48.148;8.542;2023-01-30T04:00:40;19.45;;;8.90;;
19861;SDS011;10093;48.148;8.542;2023-01-30T04:03:06;22.90;;;10.52;;
19861;SDS011;10093;48.148;8.542;2023-01-30T04:05:32;20.33;;;8.75;;
19861;SDS011;10093;48.148;8.542;2023-01-30T04:07:58;21.08;;;9.68;;
19861;SDS011;10093;48.148;8.542;2023-01-30T04:10:24;20.27;;;9.43;;
19861;SDS011;10093;48.148;8.542;2023-01-30T04:12:50;23.42;;;9.88;;
19861;SDS011;10093;48.148;8.542;2023-01-30T04:15:16;24.33;;;10.07;;
19861;SDS011;10093;48.148;8.542;2023-01-30T04:17:42;22.77;;;9.68;;
19861;SDS011;10093;48.148;8.542;2023-01-30T04:20:08;23.80;;;10.40;;
19861;SDS011;10093;48.148;8.542;2023-01-30T04:22:34;22.98;;;9.30;;
19861;SDS011;10093;48.148;8.542;2023-01-30T04:25:00;23.17;;;10.38;;
19861;SDS011;10093;48.148;8.542;2023-01-30T04:27:26;22.67;;;10.05;;
19861;SDS011;10093;48.148;8.542;2023-01-30T04:29:52;26.63;;;10.80;;
19861;SDS011;10093;48.148;8.542;2023-01-30T04:32:17;26.23;;;11.00;;
19861;SDS011;10093;48.148;8.542;2023-01-30T04:34:43;25.25;;;10.88;;
19861;SDS011;10093;48.148;8.542;2023-01-30T04:37:09;28.08;;;11.93;;
19861;SDS011;10093;48.148;8.542;2023-01-30T04:39:35;24.45;;;11.20;;
19861;SDS011;10093;48.148;8.542;2023-01-30T04:42:01;21.48;;;10.13;;
19861;SDS011;10093;48.148;8.542;2023-01-30T04:44:27;20.90;;;10.13;;
19861;SDS011;10093;48.148;8.542;2023-01-30T04:46:53;27.90;;;12.02;;
19861;SDS011;10093;48.148;8.542;2023-01-30T04:49:19;24.23;;;10.52;;
19861;SDS011;10093;48.148;8.542;2023-01-30T04:51:45;21.15;;;9.85;;
19861;SDS011;10093;48.148;8.542;2023-01-30T04:54:10;19.17;;;8.60;;
19861;SDS011;10093;48.148;8.542;2023-01-30T04:56:36;20.67;;;9.50;;
19861;SDS011;10093;48.148;8.542;2023-01-30T04:59:02;21.50;;;9.77;;
19861;SDS011;10093;48.148;8.542;2023-01-30T05:01:29;18.92;;;9.32;;
19861;SDS011;10093;48.148;8.542;2023-01-30T05:03:57;22.50;;;9.82;;
19861;SDS011;10093;48.148;8.542;2023-01-30T05:06:23;21.83;;;9.88;;
19861;SDS011;10093;48.148;8.542;2023-01-30T05:08:49;23.27;;;10.20;;
19861;SDS011;10093;48.148;8.542;2023-01-30T05:11:16;22.67;;;10.80;;
19861;SDS011;10093;48.148;8.542;2023-01-30T05:13:43;33.83;;;15.25;;
19861;SDS011;10093;48.148;8.542;2023-01-30T05:16:09;28.00;;;11.85;;
19861;SDS011;10093;48.148;8.542;2023-01-30T05:18:35;27.77;;;12.18;;
19861;SDS011;10093;48.148;8.542;2023-01-30T05:21:07;62.83;;;26.77;;
19861;SDS011;10093;48.148;8.542;2023-01-30T05:23:37;25.83;;;11.55;;
19861;SDS011;10093;48.148;8.542;2023-01-30T05:26:03;25.63;;;11.60;;
19861;SDS011;10093;48.148;8.542;2023-01-30T05:28:29;40.88;;;16.35;;
19861;SDS011;10093;48.148;8.542;2023-01-30T05:31:11;25.98;;;12.70;;
19861;SDS011;10093;48.148;8.542;2023-01-30T05:33:38;26.80;;;12.63;;
19861;SDS011;10093;48.148;8.542;2023-01-30T05:36:05;21.90;;;11.20;;
19861;SDS011;10093;48.148;8.542;2023-01-30T05:38:31;21.73;;;10.18;;
19861;SDS011;10093;48.148;8.542;2023-01-30T05:41:00;23.95;;;11.55;;
19861;SDS011;10093;48.148;8.542;2023-01-30T05:43:28;23.65;;;11.07;;
19861;SDS011;10093;48.148;8.542;2023-01-30T05:45:54;25.45;;;14.18;;
19861;SDS011;10093;48.148;8.542;2023-01-30T05:48:22;34.13;;;11.95;;
19861;SDS011;10093;48.148;8.542;2023-01-30T05:50:51;20.55;;;9.68;;
19861;SDS011;10093;48.148;8.542;2023-01-30T05:53:18;21.88;;;9.88;;
19861;SDS011;10093;48.148;8.542;2023-01-30T05:55:44;22.92;;;9.30;;
19861;SDS011;10093;48.148;8.542;2023-01-30T05:58:10;22.10;;;9.10;;
19861;SDS011;10093;48.148;8.542;2023-01-30T06:00:36;19.02;;;8.73;;
19861;SDS011;10093;48.148;8.542;2023-01-30T06:03:02;21.98;;;10.73;;
19861;SDS011;10093;48.148;8.542;2023-01-30T06:05:27;20.90;;;9.55;;
19861;SDS011;10093;48.148;8.542;2023-01-30T06:07:53;26.83;;;11.45;;
19861;SDS011;10093;48.148;8.542;2023-01-30T06:10:19;27.42;;;12.95;;
19861;SDS011;10093;48.148;8.542;2023-01-30T06:12:44;34.10;;;15.15;;
19861;SDS011;10093;48.148;8.542;2023-01-30T06:15:10;31.95;;;14.30;;
19861;SDS011;10093;48.148;8.542;2023-01-30T06:17:36;29.23;;;13.50;;
19861;SDS011;10093;48.148;8.542;2023-01-30T06:20:01;31.38;;;13.68;;
19861;SDS011;10093;48.148;8.542;2023-01-30T06:22:29;34.33;;;13.80;;
19861;SDS011;10093;48.148;8.542;2023-01-30T06:24:54;31.15;;;13.02;;
19861;SDS011;10093;48.148;8.542;2023-01-30T06:27:20;37.40;;;13.82;;
19861;SDS011;10093;48.148;8.542;2023-01-30T06:29:45;27.30;;;12.77;;
19861;SDS011;10093;48.148;8.542;2023-01-30T06:32:11;29.45;;;12.70;;
19861;SDS011;10093;48.148;8.542;2023-01-30T06:34:36;30.95;;;13.68;;
19861;SDS011;10093;48.148;8.542;2023-01-30T06:37:02;29.15;;;13.18;;
19861;SDS011;10093;48.148;8.542;2023-01-30T06:39:27;26.60;;;11.75;;
19861;SDS011;10093;48.148;8.542;2023-01-30T06:41:56;25.38;;;11.38;;
19861;SDS011;10093;48.148;8.542;2023-01-30T06:44:22;23.45;;;10.15;;
19861;SDS011;10093;48.148;8.542;2023-01-30T06:46:47;24.40;;;10.60;;
19861;SDS011;10093;48.148;8.542;2023-01-30T06:49:13;25.65;;;11.82;;
19861;SDS011;10093;48.148;8.542;2023-01-30T06:51:38;20.00;;;10.10;;
19861;SDS011;10093;48.148;8.542;2023-01-30T06:54:04;22.40;;;10.13;;
19861;SDS011;10093;48.148;8.542;2023-01-30T06:56:30;24.13;;;10.85;;
19861;SDS011;10093;48.148;8.542;2023-01-30T06:58:55;22.27;;;10.38;;
19861;SDS011;10093;48.148;8.542;2023-01-30T07:01:21;22.25;;;9.93;;
19861;SDS011;10093;48.148;8.542;2023-01-30T07:03:46;24.75;;;10.55;;
19861;SDS011;10093;48.148;8.542;2023-01-30T07:06:12;18.40;;;9.18;;
19861;SDS011;10093;48.148;8.542;2023-01-30T07:08:38;22.48;;;9.50;;
19861;SDS011;10093;48.148;8.542;2023-01-30T07:11:04;19.23;;;9.48;;
19861;SDS011;10093;48.148;8.542;2023-01-30T07:13:30;18.00;;;9.23;;
19861;SDS011;10093;48.148;8.542;2023-01-30T07:15:56;19.00;;;9.65;;
19861;SDS011;10093;48.148;8.542;2023-01-30T07:18:21;22.55;;;9.80;;
19861;SDS011;10093;48.148;8.542;2023-01-30T07:20:47;21.55;;;10.00;;
19861;SDS011;10093;48.148;8.542;2023-01-30T07:23:13;19.38;;;9.60;;
19861;SDS011;10093;48.148;8.542;2023-01-30T07:25:39;22.55;;;10.02;;
19861;SDS011;10093;48.148;8.542;2023-01-30T07:28:04;20.98;;;10.82;;
19861;SDS011;10093;48.148;8.542;2023-01-30T07:30:31;16.90;;;8.10;;
19861;SDS011;10093;48.148;8.542;2023-01-30T07:32:58;23.98;;;10.52;;
19861;SDS011;10093;48.148;8.542;2023-01-30T07:35:25;23.88;;;10.82;;
19861;SDS011;10093;48.148;8.542;2023-01-30T07:37:52;23.55;;;11.20;;
19861;SDS011;10093;48.148;8.542;2023-01-30T07:40:18;14.10;;;8.25;;
19861;SDS011;10093;48.148;8.542;2023-01-30T07:43:00;20.05;;;10.90;;
19861;SDS011;10093;48.148;8.542;2023-01-30T07:45:28;16.88;;;8.68;;
19861;SDS011;10093;48.148;8.542;2023-01-30T07:48:08;12.50;;;6.40;;
19861;SDS011;10093;48.148;8.542;2023-01-30T07:50:35;11.02;;;5.38;;
19861;SDS011;10093;48.148;8.542;2023-01-30T07:53:02;11.50;;;6.75;;
19861;SDS011;10093;48.148;8.542;2023-01-30T07:55:31;13.45;;;7.03;;
19861;SDS011;10093;48.148;8.542;2023-01-30T07:57:57;14.98;;;7.20;;
19861;SDS011;10093;48.148;8.542;2023-01-30T08:00:23;11.85;;;5.85;;
19861;SDS011;10093;48.148;8.542;2023-01-30T08:02:49;12.20;;;5.70;;
19861;SDS011;10093;48.148;8.542;2023-01-30T08:05:15;10.00;;;5.43;;
19861;SDS011;10093;48.148;8.542;2023-01-30T08:07:40;10.00;;;5.57;;
19861;SDS011;10093;48.148;8.542;2023-01-30T08:10:06;10.18;;;5.53;;
19861;SDS011;10093;48.148;8.542;2023-01-30T08:12:32;11.27;;;5.97;;
19861;SDS011;10093;48.148;8.542;2023-01-30T08:14:58;11.98;;;6.53;;
19861;SDS011;10093;48.148;8.542;2023-01-30T08:17:23;13.77;;;5.95;;
19861;SDS011;10093;48.148;8.542;2023-01-30T08:19:49;11.23;;;6.18;;
19861;SDS011;10093;48.148;8.542;2023-01-30T08:22:15;9.77;;;5.47;;
19861;SDS011;10093;48.148;8.542;2023-01-30T08:24:41;10.68;;;5.93;;
19861;SDS011;10093;48.148;8.542;2023-01-30T08:27:06;9.60;;;5.22;;
19861;SDS011;10093;48.148;8.542;2023-01-30T08:29:32;7.90;;;4.82;;
19861;SDS011;10093;48.148;8.542;2023-01-30T08:31:58;9.25;;;4.95;;
19861;SDS011;10093;48.148;8.542;2023-01-30T08:34:24;6.60;;;4.57;;
19861;SDS011;10093;48.148;8.542;2023-01-30T08:36:49;6.93;;;4.22;;
19861;SDS011;10093;48.148;8.542;2023-01-30T08:39:15;7.47;;;4.28;;
19861;SDS011;10093;48.148;8.542;2023-01-30T08:41:41;7.72;;;4.47;;
19861;SDS011;10093;48.148;8.542;2023-01-30T08:44:09;6.30;;;3.80;;
19861;SDS011;10093;48.148;8.542;2023-01-30T08:46:36;8.88;;;4.75;;
19861;SDS011;10093;48.148;8.542;2023-01-30T08:49:05;7.40;;;4.50;;
19861;SDS011;10093;48.148;8.542;2023-01-30T08:51:31;7.75;;;4.38;;
19861;SDS011;10093;48.148;8.542;2023-01-30T08:53:57;7.53;;;4.38;;
19861;SDS011;10093;48.148;8.542;2023-01-30T08:56:23;5.85;;;4.35;;
19861;SDS011;10093;48.148;8.542;2023-01-30T08:58:48;7.72;;;4.60;;
19861;SDS011;10093;48.148;8.542;2023-01-30T09:01:14;7.05;;;4.50;;
19861;SDS011;10093;48.148;8.542;2023-01-30T09:03:40;6.57;;;4.20;;
19861;SDS011;10093;48.148;8.542;2023-01-30T09:06:06;5.95;;;3.83;;
19861;SDS011;10093;48.148;8.542;2023-01-30T09:08:32;7.57;;;4.50;;
19861;SDS011;10093;48.148;8.542;2023-01-30T09:10:59;7.10;;;4.05;;
19861;SDS011;10093;48.148;8.542;2023-01-30T09:13:25;8.10;;;4.25;;
19861;SDS011;10093;48.148;8.542;2023-01-30T09:15:52;7.53;;;4.45;;
19861;SDS011;10093;48.148;8.542;2023-01-30T09:18:17;6.50;;;4.10;;
19861;SDS011;10093;48.148;8.542;2023-01-30T09:20:43;6.43;;;4.00;;
19861;SDS011;10093;48.148;8.542;2023-01-30T09:23:09;6.30;;;3.85;;
19861;SDS011;10093;48.148;8.542;2023-01-30T09:25:34;4.53;;;3.00;;
19861;SDS011;10093;48.148;8.542;2023-01-30T09:28:00;4.75;;;3.17;;
19861;SDS011;10093;48.148;8.542;2023-01-30T09:30:25;7.28;;;4.28;;
19861;SDS011;10093;48.148;8.542;2023-01-30T09:32:51;32.38;;;21.88;;
19861;SDS011;10093;48.148;8.542;2023-01-30T09:35:16;6.22;;;3.22;;
19861;SDS011;10093;48.148;8.542;2023-01-30T09:37:49;4.40;;;2.90;;
19861;SDS011;10093;48.148;8.542;2023-01-30T09:40:16;5.38;;;3.53;;
19861;SDS011;10093;48.148;8.542;2023-01-30T09:48:20;4.05;;;2.90;;
19861;SDS011;10093;48.148;8.542;2023-01-30T09:50:59;4.35;;;2.55;;
19861;SDS011;10093;48.148;8.542;2023-01-30T09:56:10;12.80;;;8.50;;
19861;SDS011;10093;48.148;8.542;2023-01-30T10:09:37;7.45;;;4.82;;
19861;SDS011;10093;48.148;8.542;2023-01-30T10:23:27;11.98;;;6.72;;
19861;SDS011;10093;48.148;8.542;2023-01-30T10:26:18;15.27;;;10.02;;
19861;SDS011;10093;48.148;8.542;2023-01-30T10:29:02;13.20;;;10.65;;
19861;SDS011;10093;48.148;8.542;2023-01-30T10:31:39;14.27;;;9.23;;
19861;SDS011;10093;48.148;8.542;2023-01-30T10:34:19;5.93;;;4.20;;
19861;SDS011;10093;48.148;8.542;2023-01-30T10:42:22;11.05;;;6.28;;
19861;SDS011;10093;48.148;8.542;2023-01-30T10:45:09;13.00;;;9.02;;
19861;SDS011;10093;48.148;8.542;2023-01-30T10:50:12;16.08;;;11.52;;
19861;SDS011;10093;48.148;8.542;2023-01-30T10:55:29;11.00;;;6.78;;
19861;SDS011;10093;48.148;8.542;2023-01-30T11:00:59;11.80;;;6.25;;
19861;SDS011;10093;48.148;8.542;2023-01-30T11:03:46;12.50;;;7.15;;
19861;SDS011;10093;48.148;8.542;2023-01-30T11:06:25;11.43;;;7.40;;
19861;SDS011;10093;48.148;8.542;2023-01-30T11:08:51;9.50;;;5.50;;
19861;SDS011;10093;48.148;8.542;2023-01-30T11:11:22;10.77;;;6.90;;
19861;SDS011;10093;48.148;8.542;2023-01-30T11:13:49;11.45;;;6.45;;
19861;SDS011;10093;48.148;8.542;2023-01-30T11:16:14;9.50;;;5.47;;
19861;SDS011;10093;48.148;8.542;2023-01-30T11:18:47;11.63;;;6.30;;
19861;SDS011;10093;48.148;8.542;2023-01-30T11:21:29;16.33;;;5.68;;
19861;SDS011;10093;48.148;8.542;2023-01-30T11:23:56;8.48;;;5.07;;
19861;SDS011;10093;48.148;8.542;2023-01-30T11:26:35;6.95;;;3.85;;
19861;SDS011;10093;48.148;8.542;2023-01-30T11:29:14;5.70;;;3.63;;
19861;SDS011;10093;48.148;8.542;2023-01-30T11:31:54;7.40;;;4.55;;
19861;SDS011;10093;48.148;8.542;2023-01-30T11:34:20;3.25;;;2.22;;
19861;SDS011;10093;48.148;8.542;2023-01-30T11:36:48;5.38;;;3.90;;
19861;SDS011;10093;48.148;8.542;2023-01-30T11:44:26;7.55;;;3.85;;
19861;SDS011;10093;48.148;8.542;2023-01-30T11:46:53;7.18;;;2.97;;
19861;SDS011;10093;48.148;8.542;2023-01-30T11:49:24;8.07;;;4.47;;
19861;SDS011;10093;48.148;8.542;2023-01-30T11:51:56;13.10;;;7.70;;
19861;SDS011;10093;48.148;8.542;2023-01-30T11:54:34;10.95;;;6.50;;
19861;SDS011;10093;48.148;8.542;2023-01-30T11:57:04;7.72;;;4.63;;
19861;SDS011;10093;48.148;8.542;2023-01-30T11:59:34;7.95;;;4.15;;
19861;SDS011;10093;48.148;8.542;2023-01-30T12:02:13;7.35;;;3.67;;
19861;SDS011;10093;48.148;8.542;2023-01-30T12:05:04;6.35;;;4.20;;
19861;SDS011;10093;48.148;8.542;2023-01-30T12:07:33;7.50;;;4.65;;
19861;SDS011;10093;48.148;8.542;2023-01-30T12:10:00;7.97;;;4.18;;
19861;SDS011;10093;48.148;8.542;2023-01-30T12:12:55;23.70;;;18.50;;
19861;SDS011;10093;48.148;8.542;2023-01-30T12:15:25;6.35;;;4.30;;
19861;SDS011;10093;48.148;8.542;2023-01-30T12:28:34;14.23;;;10.05;;
19861;SDS011;10093;48.148;8.542;2023-01-30T12:34:00;7.25;;;4.22;;
19861;SDS011;10093;48.148;8.542;2023-01-30T12:42:11;3.53;;;2.15;;
19861;SDS011;10093;48.148;8.542;2023-01-30T12:45:05;4.63;;;2.97;;
19861;SDS011;10093;48.148;8.542;2023-01-30T12:52:58;6.13;;;3.63;;
19861;SDS011;10093;48.148;8.542;2023-01-30T12:58:26;5.47;;;3.80;;
19861;SDS011;10093;48.148;8.542;2023-01-30T13:01:01;30.58;;;15.63;;
19861;SDS011;10093;48.148;8.542;2023-01-30T13:18:06;5.43;;;4.13;;
19861;SDS011;10093;48.148;8.542;2023-01-30T13:21:05;6.32;;;4.85;;
19861;SDS011;10093;48.148;8.542;2023-01-30T13:26:23;5.72;;;4.00;;
19861;SDS011;10093;48.148;8.542;2023-01-30T13:28:55;6.25;;;3.70;;
19861;SDS011;10093;48.148;8.542;2023-01-30T13:31:25;4.13;;;2.67;;
19861;SDS011;10093;48.148;8.542;2023-01-30T13:34:09;4.13;;;2.97;;
19861;SDS011;10093;48.148;8.542;2023-01-30T13:36:42;7.10;;;5.47;;
19861;SDS011;10093;48.148;8.542;2023-01-30T13:39:32;3.08;;;1.80;;
19861;SDS011;10093;48.148;8.542;2023-01-30T13:42:04;6.45;;;4.22;;
19861;SDS011;10093;48.148;8.542;2023-01-30T13:44:36;4.28;;;2.75;;
19861;SDS011;10093;48.148;8.542;2023-01-30T13:49:44;7.30;;;4.80;;
19861;SDS011;10093;48.148;8.542;2023-01-30T13:52:23;11.73;;;8.95;;
19861;SDS011;10093;48.148;8.542;2023-01-30T13:57:29;24.63;;;17.95;;
19861;SDS011;10093;48.148;8.542;2023-01-30T14:00:09;11.35;;;8.82;;
19861;SDS011;10093;48.148;8.542;2023-01-30T14:10:54;2.58;;;2.05;;
19861;SDS011;10093;48.148;8.542;2023-01-30T14:13:21;2.88;;;2.50;;
19861;SDS011;10093;48.148;8.542;2023-01-30T14:15:52;7.97;;;4.68;;
19861;SDS011;10093;48.148;8.542;2023-01-30T14:18:27;13.68;;;9.50;;
19861;SDS011;10093;48.148;8.542;2023-01-30T14:21:21;17.20;;;10.60;;
19861;SDS011;10093;48.148;8.542;2023-01-30T14:23:55;29.17;;;17.65;;
19861;SDS011;10093;48.148;8.542;2023-01-30T14:29:11;6.70;;;4.03;;
19861;SDS011;10093;48.148;8.542;2023-01-30T14:39:59;31.23;;;20.17;;
19861;SDS011;10093;48.148;8.542;2023-01-30T14:42:29;6.95;;;4.35;;
19861;SDS011;10093;48.148;8.542;2023-01-30T14:45:12;10.82;;;8.45;;
19861;SDS011;10093;48.148;8.542;2023-01-30T14:47:40;3.97;;;2.50;;
19861;SDS011;10093;48.148;8.542;2023-01-30T14:50:16;7.88;;;5.75;;
19861;SDS011;10093;48.148;8.542;2023-01-30T14:52:44;8.43;;;6.53;;
19861;SDS011;10093;48.148;8.542;2023-01-30T14:55:17;3.63;;;2.40;;
19861;SDS011;10093;48.148;8.542;2023-01-30T14:57:47;5.15;;;2.17;;
19861;SDS011;10093;48.148;8.542;2023-01-30T15:02:52;3.72;;;2.13;;
19861;SDS011;10093;48.148;8.542;2023-01-30T15:05:32;3.85;;;2.30;;
19861;SDS011;10093;48.148;8.542;2023-01-30T15:08:05;3.15;;;2.50;;
19861;SDS011;10093;48.148;8.542;2023-01-30T15:13:40;5.32;;;2.95;;
19861;SDS011;10093;48.148;8.542;2023-01-30T15:32:20;2.40;;;1.90;;
19861;SDS011;10093;48.148;8.542;2023-01-30T15:37:32;2.10;;;1.10;;
19861;SDS011;10093;48.148;8.542;2023-01-30T15:42:44;0.88;;;0.70;;
19861;SDS011;10093;48.148;8.542;2023-01-30T15:50:27;1.50;;;1.40;;
19861;SDS011;10093;48.148;8.542;2023-01-30T15:52:53;1.08;;;0.90;;
19861;SDS011;10093;48.148;8.542;2023-01-30T15:55:25;5.57;;;4.82;;
19861;SDS011;10093;48.148;8.542;2023-01-30T15:57:57;10.90;;;9.80;;
19861;SDS011;10093;48.148;8.542;2023-01-30T16:05:48;2.22;;;1.17;;
19861;SDS011;10093;48.148;8.542;2023-01-30T16:08:26;1.90;;;1.58;;
19861;SDS011;10093;48.148;8.542;2023-01-30T16:10:53;2.03;;;1.67;;
19861;SDS011;10093;48.148;8.542;2023-01-30T16:13:20;4.40;;;2.83;;
19861;SDS011;10093;48.148;8.542;2023-01-30T16:16:05;3.53;;;1.92;;
19861;SDS011;10093;48.148;8.542;2023-01-30T16:18:47;2.53;;;2.30;;
19861;SDS011;10093;48.148;8.542;2023-01-30T16:21:18;2.35;;;1.50;;
19861;SDS011;10093;48.148;8.542;2023-01-30T16:26:29;6.60;;;4.03;;
19861;SDS011;10093;48.148;8.542;2023-01-30T16:29:04;6.20;;;3.97;;
19861;SDS011;10093;48.148;8.542;2023-01-30T16:31:41;9.00;;;4.57;;
19861;SDS011;10093;48.148;8.542;2023-01-30T16:36:53;45.60;;;17.95;;
19861;SDS011;10093;48.148;8.542;2023-01-30T16:39:26;18.15;;;7.13;;
19861;SDS011;10093;48.148;8.542;2023-01-30T16:41:54;67.80;;;20.85;;
19861;SDS011;10093;48.148;8.542;2023-01-30T16:44:22;152.70;;;40.92;;
19861;SDS011;10093;48.148;8.542;2023-01-30T16:46:50;70.03;;;19.23;;
19861;SDS011;10093;48.148;8.542;2023-01-30T16:52:43;42.03;;;13.02;;
19861;SDS011;10093;48.148;8.542;2023-01-30T16:55:17;12.35;;;5.78;;
19861;SDS011;10093;48.148;8.542;2023-01-30T16:57:59;8.18;;;3.58;;
19861;SDS011;10093;48.148;8.542;2023-01-30T17:02:54;9.65;;;5.18;;
19861;SDS011;10093;48.148;8.542;2023-01-30T17:05:26;8.77;;;3.22;;
19861;SDS011;10093;48.148;8.542;2023-01-30T17:07:54;4.35;;;2.95;;
19861;SDS011;10093;48.148;8.542;2023-01-30T17:13:47;5.35;;;3.30;;
19861;SDS011;10093;48.148;8.542;2023-01-30T17:18:51;5.22;;;3.72;;
19861;SDS011;10093;48.148;8.542;2023-01-30T17:21:20;9.85;;;6.28;;
19861;SDS011;10093;48.148;8.542;2023-01-30T17:23:48;8.18;;;4.68;;
19861;SDS011;10093;48.148;8.542;2023-01-30T17:26:22;5.88;;;3.85;;
19861;SDS011;10093;48.148;8.542;2023-01-30T17:28:48;6.57;;;3.38;;
19861;SDS011;10093;48.148;8.542;2023-01-30T17:31:14;5.18;;;3.72;;
19861;SDS011;10093;48.148;8.542;2023-01-30T17:33:40;5.05;;;3.45;;
19861;SDS011;10093;48.148;8.542;2023-01-30T17:36:10;4.32;;;3.50;;
19861;SDS011;10093;48.148;8.542;2023-01-30T17:38:49;7.20;;;4.45;;
19861;SDS011;10093;48.148;8.542;2023-01-30T17:41:18;7.35;;;4.40;;
19861;SDS011;10093;48.148;8.542;2023-01-30T17:43:45;6.07;;;3.75;;
19861;SDS011;10093;48.148;8.542;2023-01-30T17:46:11;6.72;;;4.35;;
19861;SDS011;10093;48.148;8.542;2023-01-30T17:48:38;5.47;;;3.75;;
19861;SDS011;10093;48.148;8.542;2023-01-30T17:51:03;6.65;;;4.00;;
19861;SDS011;10093;48.148;8.542;2023-01-30T17:53:29;7.82;;;3.70;;
19861;SDS011;10093;48.148;8.542;2023-01-30T17:55:55;5.72;;;3.65;;
19861;SDS011;10093;48.148;8.542;2023-01-30T17:58:20;6.00;;;4.10;;
19861;SDS011;10093;48.148;8.542;2023-01-30T18:00:46;9.40;;;5.97;;
19861;SDS011;10093;48.148;8.542;2023-01-30T18:03:12;7.88;;;4.80;;
19861;SDS011;10093;48.148;8.542;2023-01-30T18:05:38;7.22;;;4.50;;